D/T METAR WX W/DIR W/SPE G/SPE TEMP DEWP
25/02/20 15:00 EIME 251500Z 26018KT 9999 FEW013 FEW018CB SCT025 04/02 Q0995 W (260°) 20.7mph 4°C 2°C
25/02/20 14:30 EIME 251430Z 25019KT 9999 SCT014 BKN070 03/01 Q0995 WSW (250°) 21.9mph 3°C 1°C
25/02/20 14:00 EIME 251400Z 25018KT 9999 FEW008 BKN014 BKN036 03/02 Q0995 RESHRA WSW (250°) 20.7mph 3°C 2°C
25/02/20 13:30 EIME 251330Z 25018KT 9999 -SHRA FEW007 BKN014 BKN035 02/01 Q0996 -SHRA WSW (250°) 20.7mph 2°C 1°C
25/02/20 13:00 EIME 251300Z 25020KT 9999 -SHRA FEW009 BKN012 BKN030 03/01 Q0996 -SHRA WSW (250°) 23.0mph 3°C 1°C
25/02/20 12:30 EIME 251230Z 25018KT 9999 SCT016 BKN080 04/01 Q0996 WSW (250°) 20.7mph 4°C 1°C
25/02/20 12:00 EIME 251200Z 24017KT 9999 FEW020 BKN090 04/02 Q0996 WSW (240°) 19.6mph 4°C 2°C
25/02/20 11:30 EIME 251130Z 23018KT 9999 FEW018 BKN025 BKN150 04/01 Q0996 SW (230°) 20.7mph 4°C 1°C
25/02/20 11:00 EIME 251100Z 23014KT 9999 FEW018 BKN150 04/01 Q0996 SW (230°) 16.1mph 4°C 1°C
25/02/20 10:30 EIME 251030Z 24015KT 9999 FEW017 SCT170 04/01 Q0997 WSW (240°) 17.3mph 4°C 1°C
25/02/20 10:00 EIME 251000Z 22015KT 9999 FEW015 SCT035 04/01 Q0997 SW (220°) 17.3mph 4°C 1°C
25/02/20 09:30 EIME 250930Z 22016KT 9999 FEW015 SCT030 03/01 Q0997 SW (220°) 18.4mph 3°C 1°C
25/02/20 09:00 EIME 250900Z 23017KT 9999 SCT012 SCT030 03/01 Q0998 SW (230°) 19.6mph 3°C 1°C
25/02/20 08:30 EIME 250830Z 23015KT 9999 SCT013 BKN080 03/01 Q0998 SW (230°) 17.3mph 3°C 1°C
25/02/20 08:00 EIME 250800Z 23017G27KT 9999 FEW012 BKN039 BKN120 03/01 Q0998 SW (230°) 19.6mph 31.1mph 3°C 1°C
25/02/20 07:00 EIME 250700Z 22017KT 9999 FEW017 SCT140 02/01 Q0999 SW (220°) 19.6mph 2°C 1°C
25/02/20 06:00 EIME 250600Z 22015KT 9999 FEW016 BKN140 02/01 Q0999 SW (220°) 17.3mph 2°C 1°C
25/02/20 05:00 EIME 250500Z 20014KT 9999 FEW017 02/01 Q1000 SSW (200°) 16.1mph 2°C 1°C
25/02/20 04:00 EIME 250400Z 23015KT 9999 SCT017 SCT026 03/01 Q1000 SW (230°) 17.3mph 3°C 1°C
25/02/20 03:00 EIME 250300Z 24015KT 9999 FEW015 BKN020 03/02 Q1001 WSW (240°) 17.3mph 3°C 2°C
25/02/20 02:00 EIME 250200Z 24016G30KT 9999 -RA SCT011 BKN026 03/02 Q1002 -RA WSW (240°) 18.4mph 34.5mph 3°C 2°C
25/02/20 01:00 EIME 250100Z 22015KT 9999 -RA FEW018 SCT027 BKN100 04/02 Q1002 -RA SW (220°) 17.3mph 4°C 2°C
25/02/20 00:00 EIME 250000Z 23014KT 9999 FEW018 SCT030 04/02 Q1003 SW (230°) 16.1mph 4°C 2°C
24/02/20 23:00 EIME 242300Z 24016KT 9999 FEW018 SCT027 BKN040 04/02 Q1003 WSW (240°) 18.4mph 4°C 2°C
24/02/20 22:00 EIME 242200Z 22012KT 9999 FEW018 03/01 Q1004 SW (220°) 13.8mph 3°C 1°C
24/02/20 21:00 EIME 242100Z 24014KT 9999 FEW018 04/01 Q1004 WSW (240°) 16.1mph 4°C 1°C
24/02/20 20:00 EIME 242000Z 26014KT 9999 FEW018 04/01 Q1004 W (260°) 16.1mph 4°C 1°C
24/02/20 19:00 EIME 241900Z 26016KT 9999 FEW018 SCT045 05/02 Q1004 W (260°) 18.4mph 5°C 2°C
24/02/20 18:00 EIME 241800Z 27017KT 9999 FEW022 05/02 Q1004 W (270°) 19.6mph 5°C 2°C
24/02/20 17:00 EIME 241700Z 27019KT 9999 FEW023 BKN033 07/02 Q1003 W (270°) 21.9mph 7°C 2°C
24/02/20 16:30 EIME 241630Z 27019KT 9999 FEW025 07/02 Q1003 W (270°) 21.9mph 7°C 2°C
24/02/20 16:00 EIME 241600Z 27019KT 9999 FEW025 SCT035 08/03 Q1002 W (270°) 21.9mph 8°C 3°C
24/02/20 15:00 EIME 241500Z 27022KT 9999 FEW018CB SCT025 08/04 Q1002 RESHRA W (270°) 25.3mph 8°C 4°C
24/02/20 14:30 EIME 241430Z 27020KT 9999 FEW020 BKN027 07/04 Q1002 W (270°) 23.0mph 7°C 4°C
24/02/20 14:00 EIME 241400Z 27020KT 9999 SCT018 BKN025 07/04 Q1002 RERA W (270°) 23.0mph 7°C 4°C
24/02/20 13:30 EIME 241330Z 26023KT 9999 BKN015 BKN024 07/05 Q1001 RERA W (260°) 26.5mph 7°C 5°C
24/02/20 13:00 EIME 241300Z 25023G37KT 9999 -RA FEW012 BKN016 BKN022 07/05 Q1000 -RA WSW (250°) 26.5mph 42.6mph 7°C 5°C
24/02/20 12:30 EIME 241230Z 25024KT 9999 -RA FEW013 BKN015 BKN021 08/06 Q1000 -RA WSW (250°) 27.6mph 8°C 6°C
24/02/20 12:00 EIME 241200Z 25026KT 9999 FEW015 SCT018 BKN023 09/06 Q1000 WSW (250°) 29.9mph 9°C 6°C
24/02/20 11:30 EIME 241130Z 25022KT 9999 SCT018 BKN250 10/07 Q0999 WSW (250°) 25.3mph 10°C 7°C
24/02/20 11:00 EIME 241100Z 25025G35KT 9999 -DZ BKN016 BKN025 11/08 Q0998 -DZ WSW (250°) 28.8mph 40.3mph 11°C 8°C
24/02/20 10:30 EIME 241030Z 24023KT 9999 -DZ BKN015 BKN022 11/09 Q0998 -DZ WSW (240°) 26.5mph 11°C 9°C
24/02/20 10:00 EIME 241000Z 24022KT 9999 -DZ FEW015 BKN018 BKN021 11/09 Q0997 -DZ WSW (240°) 25.3mph 11°C 9°C
24/02/20 09:30 EIME 240930Z 24023G35KT 9999 FEW016 BKN018 11/10 Q0997 RERADZ WSW (240°) 26.5mph 40.3mph 11°C 10°C
24/02/20 09:00 EIME 240900Z 24020KT 4000 -RADZ FEW010 BKN012 11/10 Q0997 -RA -DZ WSW (240°) 23.0mph 11°C 10°C
24/02/20 08:30 EIME 240830Z 23020G30KT 4000 -RADZ FEW010 BKN012 11/10 Q0997 -RA -DZ SW (230°) 23.0mph 34.5mph 11°C 10°C
24/02/20 08:00 EIME 240800Z 22022G32KT 4000 -DZ FEW010 BKN012 11/10 Q0998 -DZ SW (220°) 25.3mph 36.8mph 11°C 10°C
24/02/20 07:00 EIME 240700Z 22023G33KT 9000 -RA FEW010 SCT013 BKN019 11/10 Q0998 -RA SW (220°) 26.5mph 38.0mph 11°C 10°C